sensor_id;sensor_type;location;lat;lon;timestamp;temperature;humidity
5588;DHT22;2816;49.778;9.986;2022-08-01T00:00:31;22.80;91.70
5588;DHT22;2816;49.778;9.986;2022-08-01T00:02:59;22.70;92.20
5588;DHT22;2816;49.778;9.986;2022-08-01T00:05:26;22.70;92.30
5588;DHT22;2816;49.778;9.986;2022-08-01T00:07:53;22.70;92.00
5588;DHT22;2816;49.778;9.986;2022-08-01T00:10:20;22.70;92.30
5588;DHT22;2816;49.778;9.986;2022-08-01T00:12:47;22.70;92.50
5588;DHT22;2816;49.778;9.986;2022-08-01T00:15:16;22.70;92.70
5588;DHT22;2816;49.778;9.986;2022-08-01T00:17:43;22.70;92.60
5588;DHT22;2816;49.778;9.986;2022-08-01T00:20:13;22.70;92.50
5588;DHT22;2816;49.778;9.986;2022-08-01T00:22:40;22.60;92.80
5588;DHT22;2816;49.778;9.986;2022-08-01T00:25:08;22.60;92.60
5588;DHT22;2816;49.778;9.986;2022-08-01T00:27:35;22.60;93.20
5588;DHT22;2816;49.778;9.986;2022-08-01T00:30:02;22.50;93.40
5588;DHT22;2816;49.778;9.986;2022-08-01T00:32:30;22.50;93.60
5588;DHT22;2816;49.778;9.986;2022-08-01T00:34:57;22.50;93.80
5588;DHT22;2816;49.778;9.986;2022-08-01T00:37:25;22.40;93.60
5588;DHT22;2816;49.778;9.986;2022-08-01T00:39:52;22.40;93.50
5588;DHT22;2816;49.778;9.986;2022-08-01T00:42:20;22.40;93.70
5588;DHT22;2816;49.778;9.986;2022-08-01T00:44:47;22.40;93.90
5588;DHT22;2816;49.778;9.986;2022-08-01T00:47:14;22.30;93.90
5588;DHT22;2816;49.778;9.986;2022-08-01T00:49:41;22.30;94.10
5588;DHT22;2816;49.778;9.986;2022-08-01T00:52:08;22.30;94.20
5588;DHT22;2816;49.778;9.986;2022-08-01T00:54:37;22.20;93.80
5588;DHT22;2816;49.778;9.986;2022-08-01T00:57:04;22.20;94.60
5588;DHT22;2816;49.778;9.986;2022-08-01T00:59:31;22.20;94.50
5588;DHT22;2816;49.778;9.986;2022-08-01T01:01:58;22.10;94.80
5588;DHT22;2816;49.778;9.986;2022-08-01T01:04:25;22.10;94.80
5588;DHT22;2816;49.778;9.986;2022-08-01T01:06:59;22.00;94.90
5588;DHT22;2816;49.778;9.986;2022-08-01T01:09:36;22.00;95.50
5588;DHT22;2816;49.778;9.986;2022-08-01T01:12:16;21.90;95.50
5588;DHT22;2816;49.778;9.986;2022-08-01T01:14:51;21.90;95.60
5588;DHT22;2816;49.778;9.986;2022-08-01T01:17:25;21.80;96.00
5588;DHT22;2816;49.778;9.986;2022-08-01T01:19:55;21.70;96.10
5588;DHT22;2816;49.778;9.986;2022-08-01T01:22:46;21.70;96.40
5588;DHT22;2816;49.778;9.986;2022-08-01T01:25:46;21.60;96.60
5588;DHT22;2816;49.778;9.986;2022-08-01T01:28:24;21.60;96.70
5588;DHT22;2816;49.778;9.986;2022-08-01T01:30:57;21.50;96.90
5588;DHT22;2816;49.778;9.986;2022-08-01T01:33:27;21.40;97.10
5588;DHT22;2816;49.778;9.986;2022-08-01T01:35:59;21.40;97.30
5588;DHT22;2816;49.778;9.986;2022-08-01T01:38:32;21.40;97.40
5588;DHT22;2816;49.778;9.986;2022-08-01T01:41:00;21.30;97.60
5588;DHT22;2816;49.778;9.986;2022-08-01T01:43:29;21.30;97.70
5588;DHT22;2816;49.778;9.986;2022-08-01T01:45:58;21.20;98.00
5588;DHT22;2816;49.778;9.986;2022-08-01T01:48:26;21.20;98.10
5588;DHT22;2816;49.778;9.986;2022-08-01T01:50:54;21.10;98.20
5588;DHT22;2816;49.778;9.986;2022-08-01T01:53:23;21.10;98.30
5588;DHT22;2816;49.778;9.986;2022-08-01T01:55:54;21.10;98.60
5588;DHT22;2816;49.778;9.986;2022-08-01T01:58:23;21.00;98.70
5588;DHT22;2816;49.778;9.986;2022-08-01T02:00:52;21.00;98.80
5588;DHT22;2816;49.778;9.986;2022-08-01T02:03:23;21.00;98.80
5588;DHT22;2816;49.778;9.986;2022-08-01T02:05:53;20.90;99.40
5588;DHT22;2816;49.778;9.986;2022-08-01T02:08:22;20.90;99.50
5588;DHT22;2816;49.778;9.986;2022-08-01T02:10:51;20.80;99.50
5588;DHT22;2816;49.778;9.986;2022-08-01T02:13:36;20.80;99.60
5588;DHT22;2816;49.778;9.986;2022-08-01T02:16:05;20.80;99.80
5588;DHT22;2816;49.778;9.986;2022-08-01T02:18:35;20.80;99.90
5588;DHT22;2816;49.778;9.986;2022-08-01T02:21:04;20.70;99.90
5588;DHT22;2816;49.778;9.986;2022-08-01T02:23:34;20.70;99.90
5588;DHT22;2816;49.778;9.986;2022-08-01T02:26:08;20.60;99.90
5588;DHT22;2816;49.778;9.986;2022-08-01T02:28:40;20.60;99.90
5588;DHT22;2816;49.778;9.986;2022-08-01T02:31:12;20.50;99.90
5588;DHT22;2816;49.778;9.986;2022-08-01T02:33:45;20.40;99.90
5588;DHT22;2816;49.778;9.986;2022-08-01T02:36:12;20.30;99.90
5588;DHT22;2816;49.778;9.986;2022-08-01T02:38:43;20.30;99.90
5588;DHT22;2816;49.778;9.986;2022-08-01T02:41:17;20.30;99.90
5588;DHT22;2816;49.778;9.986;2022-08-01T02:43:48;20.30;99.90
5588;DHT22;2816;49.778;9.986;2022-08-01T02:46:19;20.30;99.90
5588;DHT22;2816;49.778;9.986;2022-08-01T02:48:51;20.30;99.90
5588;DHT22;2816;49.778;9.986;2022-08-01T02:51:21;20.30;99.90
5588;DHT22;2816;49.778;9.986;2022-08-01T02:53:50;20.30;99.90
5588;DHT22;2816;49.778;9.986;2022-08-01T02:56:19;20.20;99.90
5588;DHT22;2816;49.778;9.986;2022-08-01T02:58:49;20.20;99.90
5588;DHT22;2816;49.778;9.986;2022-08-01T03:01:16;20.20;99.90
5588;DHT22;2816;49.778;9.986;2022-08-01T03:03:45;20.20;99.90
5588;DHT22;2816;49.778;9.986;2022-08-01T03:06:14;20.10;99.90
5588;DHT22;2816;49.778;9.986;2022-08-01T03:08:42;20.10;99.90
5588;DHT22;2816;49.778;9.986;2022-08-01T03:11:11;20.10;99.90
5588;DHT22;2816;49.778;9.986;2022-08-01T03:13:41;20.10;99.90
5588;DHT22;2816;49.778;9.986;2022-08-01T03:16:09;20.10;99.90
5588;DHT22;2816;49.778;9.986;2022-08-01T03:18:40;20.00;99.90
5588;DHT22;2816;49.778;9.986;2022-08-01T03:21:09;20.00;99.90
5588;DHT22;2816;49.778;9.986;2022-08-01T03:23:38;20.00;99.90
5588;DHT22;2816;49.778;9.986;2022-08-01T03:26:07;20.00;99.90
5588;DHT22;2816;49.778;9.986;2022-08-01T03:28:35;20.00;99.90
5588;DHT22;2816;49.778;9.986;2022-08-01T03:31:03;20.00;99.90
5588;DHT22;2816;49.778;9.986;2022-08-01T03:33:31;20.10;99.90
5588;DHT22;2816;49.778;9.986;2022-08-01T03:35:59;20.10;99.90
5588;DHT22;2816;49.778;9.986;2022-08-01T03:38:30;20.10;99.90
5588;DHT22;2816;49.778;9.986;2022-08-01T03:41:04;20.00;99.90
5588;DHT22;2816;49.778;9.986;2022-08-01T03:43:37;20.00;99.90
5588;DHT22;2816;49.778;9.986;2022-08-01T03:46:10;20.00;99.90
5588;DHT22;2816;49.778;9.986;2022-08-01T03:48:42;20.00;99.90
5588;DHT22;2816;49.778;9.986;2022-08-01T03:51:10;20.00;99.90
5588;DHT22;2816;49.778;9.986;2022-08-01T03:53:38;20.00;99.90
5588;DHT22;2816;49.778;9.986;2022-08-01T03:56:10;20.00;99.90
5588;DHT22;2816;49.778;9.986;2022-08-01T03:58:39;19.90;99.90
5588;DHT22;2816;49.778;9.986;2022-08-01T04:01:08;19.80;99.90
5588;DHT22;2816;49.778;9.986;2022-08-01T04:03:36;19.80;99.90
5588;DHT22;2816;49.778;9.986;2022-08-01T04:06:04;19.80;99.90
5588;DHT22;2816;49.778;9.986;2022-08-01T04:08:37;19.80;99.90
5588;DHT22;2816;49.778;9.986;2022-08-01T04:11:04;19.90;99.90
5588;DHT22;2816;49.778;9.986;2022-08-01T04:13:34;19.80;99.90
5588;DHT22;2816;49.778;9.986;2022-08-01T04:16:01;19.80;99.90
5588;DHT22;2816;49.778;9.986;2022-08-01T04:18:28;19.80;99.90
5588;DHT22;2816;49.778;9.986;2022-08-01T04:20:55;19.80;99.90
5588;DHT22;2816;49.778;9.986;2022-08-01T04:23:24;19.80;99.90
5588;DHT22;2816;49.778;9.986;2022-08-01T04:25:52;19.80;99.90
5588;DHT22;2816;49.778;9.986;2022-08-01T04:28:21;19.80;99.90
5588;DHT22;2816;49.778;9.986;2022-08-01T04:30:54;19.80;99.90
5588;DHT22;2816;49.778;9.986;2022-08-01T04:33:22;19.80;99.90
5588;DHT22;2816;49.778;9.986;2022-08-01T04:35:50;19.80;99.90
5588;DHT22;2816;49.778;9.986;2022-08-01T04:38:22;19.80;99.90
5588;DHT22;2816;49.778;9.986;2022-08-01T04:40:53;19.80;99.90
5588;DHT22;2816;49.778;9.986;2022-08-01T04:43:20;19.80;99.90
5588;DHT22;2816;49.778;9.986;2022-08-01T04:45:50;19.90;99.90
5588;DHT22;2816;49.778;9.986;2022-08-01T04:48:18;19.90;99.90
5588;DHT22;2816;49.778;9.986;2022-08-01T04:50:45;19.90;99.90
5588;DHT22;2816;49.778;9.986;2022-08-01T04:53:13;19.90;99.90
5588;DHT22;2816;49.778;9.986;2022-08-01T04:55:42;19.90;99.90
5588;DHT22;2816;49.778;9.986;2022-08-01T04:58:10;19.90;99.90
5588;DHT22;2816;49.778;9.986;2022-08-01T05:00:37;19.90;99.90
5588;DHT22;2816;49.778;9.986;2022-08-01T05:03:05;20.00;99.90
5588;DHT22;2816;49.778;9.986;2022-08-01T05:05:32;20.00;99.90
5588;DHT22;2816;49.778;9.986;2022-08-01T05:07:59;20.20;99.90
5588;DHT22;2816;49.778;9.986;2022-08-01T05:10:26;20.30;99.90
5588;DHT22;2816;49.778;9.986;2022-08-01T05:12:53;20.40;99.90
5588;DHT22;2816;49.778;9.986;2022-08-01T05:15:20;20.50;99.90
5588;DHT22;2816;49.778;9.986;2022-08-01T05:17:47;20.60;99.90
5588;DHT22;2816;49.778;9.986;2022-08-01T05:20:16;20.60;99.90
5588;DHT22;2816;49.778;9.986;2022-08-01T05:22:43;20.60;99.90
5588;DHT22;2816;49.778;9.986;2022-08-01T05:25:10;20.70;99.90
5588;DHT22;2816;49.778;9.986;2022-08-01T05:27:38;20.70;99.90
5588;DHT22;2816;49.778;9.986;2022-08-01T05:30:06;20.60;99.90
5588;DHT22;2816;49.778;9.986;2022-08-01T05:32:34;20.70;99.90
5588;DHT22;2816;49.778;9.986;2022-08-01T05:35:01;20.80;99.90
5588;DHT22;2816;49.778;9.986;2022-08-01T05:37:29;20.90;99.90
5588;DHT22;2816;49.778;9.986;2022-08-01T05:39:56;20.90;99.90
5588;DHT22;2816;49.778;9.986;2022-08-01T05:42:23;21.00;99.90
5588;DHT22;2816;49.778;9.986;2022-08-01T05:44:50;21.00;99.90
5588;DHT22;2816;49.778;9.986;2022-08-01T05:47:17;21.10;99.90
5588;DHT22;2816;49.778;9.986;2022-08-01T05:49:45;21.10;99.90
5588;DHT22;2816;49.778;9.986;2022-08-01T05:52:12;21.10;99.90
5588;DHT22;2816;49.778;9.986;2022-08-01T05:54:41;21.20;99.90
5588;DHT22;2816;49.778;9.986;2022-08-01T05:57:08;21.20;99.90
5588;DHT22;2816;49.778;9.986;2022-08-01T05:59:35;21.30;99.90
5588;DHT22;2816;49.778;9.986;2022-08-01T06:02:02;21.30;99.90
5588;DHT22;2816;49.778;9.986;2022-08-01T06:04:29;21.30;99.90
5588;DHT22;2816;49.778;9.986;2022-08-01T06:06:56;21.20;99.90
5588;DHT22;2816;49.778;9.986;2022-08-01T06:09:23;21.20;99.90
5588;DHT22;2816;49.778;9.986;2022-08-01T06:11:51;21.20;99.90
5588;DHT22;2816;49.778;9.986;2022-08-01T06:14:18;21.30;99.90
5588;DHT22;2816;49.778;9.986;2022-08-01T06:16:45;21.30;99.90
5588;DHT22;2816;49.778;9.986;2022-08-01T06:19:12;21.30;99.90
5588;DHT22;2816;49.778;9.986;2022-08-01T06:21:39;21.40;99.90
5588;DHT22;2816;49.778;9.986;2022-08-01T06:24:06;21.40;99.90
5588;DHT22;2816;49.778;9.986;2022-08-01T06:26:33;21.50;99.90
5588;DHT22;2816;49.778;9.986;2022-08-01T06:29:03;21.60;99.90
5588;DHT22;2816;49.778;9.986;2022-08-01T06:31:30;21.60;99.90
5588;DHT22;2816;49.778;9.986;2022-08-01T06:33:57;21.50;99.90
5588;DHT22;2816;49.778;9.986;2022-08-01T06:36:24;21.50;99.90
5588;DHT22;2816;49.778;9.986;2022-08-01T06:38:52;21.60;99.90
5588;DHT22;2816;49.778;9.986;2022-08-01T06:41:19;21.60;99.90
5588;DHT22;2816;49.778;9.986;2022-08-01T06:43:46;21.70;99.90
5588;DHT22;2816;49.778;9.986;2022-08-01T06:46:14;21.80;99.90
5588;DHT22;2816;49.778;9.986;2022-08-01T06:48:41;21.70;99.90
5588;DHT22;2816;49.778;9.986;2022-08-01T06:51:08;21.80;99.90
5588;DHT22;2816;49.778;9.986;2022-08-01T06:53:37;21.80;99.90
5588;DHT22;2816;49.778;9.986;2022-08-01T06:56:05;21.80;99.90
5588;DHT22;2816;49.778;9.986;2022-08-01T06:58:34;21.80;99.90
5588;DHT22;2816;49.778;9.986;2022-08-01T07:01:01;21.90;99.90
5588;DHT22;2816;49.778;9.986;2022-08-01T07:03:31;22.00;99.90
5588;DHT22;2816;49.778;9.986;2022-08-01T07:05:58;22.10;99.90
5588;DHT22;2816;49.778;9.986;2022-08-01T07:08:25;22.10;99.90
5588;DHT22;2816;49.778;9.986;2022-08-01T07:10:52;22.10;99.90
5588;DHT22;2816;49.778;9.986;2022-08-01T07:13:19;22.20;99.90
5588;DHT22;2816;49.778;9.986;2022-08-01T07:15:50;22.20;99.90
5588;DHT22;2816;49.778;9.986;2022-08-01T07:18:18;22.30;99.90
5588;DHT22;2816;49.778;9.986;2022-08-01T07:20:46;22.40;99.90
5588;DHT22;2816;49.778;9.986;2022-08-01T07:23:13;22.50;99.90
5588;DHT22;2816;49.778;9.986;2022-08-01T07:25:40;22.60;99.90
5588;DHT22;2816;49.778;9.986;2022-08-01T07:28:08;22.70;99.90
5588;DHT22;2816;49.778;9.986;2022-08-01T07:30:35;22.80;99.90
5588;DHT22;2816;49.778;9.986;2022-08-01T07:33:02;22.80;99.90
5588;DHT22;2816;49.778;9.986;2022-08-01T07:35:29;22.80;99.90
5588;DHT22;2816;49.778;9.986;2022-08-01T07:37:57;22.80;99.90
5588;DHT22;2816;49.778;9.986;2022-08-01T07:40:24;23.00;99.90
5588;DHT22;2816;49.778;9.986;2022-08-01T07:42:51;22.90;99.90
5588;DHT22;2816;49.778;9.986;2022-08-01T07:45:18;22.90;99.90
5588;DHT22;2816;49.778;9.986;2022-08-01T07:47:46;22.90;99.90
5588;DHT22;2816;49.778;9.986;2022-08-01T07:50:15;23.00;99.90
5588;DHT22;2816;49.778;9.986;2022-08-01T07:52:43;23.10;99.90
5588;DHT22;2816;49.778;9.986;2022-08-01T07:55:11;23.10;99.90
5588;DHT22;2816;49.778;9.986;2022-08-01T07:57:38;22.90;99.90
5588;DHT22;2816;49.778;9.986;2022-08-01T08:00:06;22.90;99.90
5588;DHT22;2816;49.778;9.986;2022-08-01T08:02:35;23.00;99.90
5588;DHT22;2816;49.778;9.986;2022-08-01T08:05:02;23.10;99.90
5588;DHT22;2816;49.778;9.986;2022-08-01T08:07:30;23.20;99.90
5588;DHT22;2816;49.778;9.986;2022-08-01T08:09:57;23.30;99.90
5588;DHT22;2816;49.778;9.986;2022-08-01T08:12:25;23.50;99.90
5588;DHT22;2816;49.778;9.986;2022-08-01T08:14:52;23.60;99.90
5588;DHT22;2816;49.778;9.986;2022-08-01T08:17:19;23.60;99.90
5588;DHT22;2816;49.778;9.986;2022-08-01T08:19:46;23.70;99.90
5588;DHT22;2816;49.778;9.986;2022-08-01T08:22:13;23.60;99.90
5588;DHT22;2816;49.778;9.986;2022-08-01T08:24:40;23.70;99.90
5588;DHT22;2816;49.778;9.986;2022-08-01T08:27:07;23.60;99.90
5588;DHT22;2816;49.778;9.986;2022-08-01T08:29:36;23.50;99.90
5588;DHT22;2816;49.778;9.986;2022-08-01T08:32:03;23.60;99.90
5588;DHT22;2816;49.778;9.986;2022-08-01T08:34:30;23.70;99.90
5588;DHT22;2816;49.778;9.986;2022-08-01T08:36:57;23.60;99.90
5588;DHT22;2816;49.778;9.986;2022-08-01T08:39:25;23.60;99.90
5588;DHT22;2816;49.778;9.986;2022-08-01T08:41:56;23.70;99.90
5588;DHT22;2816;49.778;9.986;2022-08-01T08:44:24;23.80;99.90
5588;DHT22;2816;49.778;9.986;2022-08-01T08:46:52;23.60;99.90
5588;DHT22;2816;49.778;9.986;2022-08-01T08:49:23;23.60;99.90
5588;DHT22;2816;49.778;9.986;2022-08-01T08:51:51;23.70;99.90
5588;DHT22;2816;49.778;9.986;2022-08-01T08:54:19;23.60;99.90
5588;DHT22;2816;49.778;9.986;2022-08-01T08:56:48;23.70;99.90
5588;DHT22;2816;49.778;9.986;2022-08-01T08:59:15;23.60;99.90
5588;DHT22;2816;49.778;9.986;2022-08-01T09:01:43;23.70;99.90
5588;DHT22;2816;49.778;9.986;2022-08-01T09:04:12;23.70;99.90
5588;DHT22;2816;49.778;9.986;2022-08-01T09:06:39;23.80;99.90
5588;DHT22;2816;49.778;9.986;2022-08-01T09:09:07;23.80;99.60
5588;DHT22;2816;49.778;9.986;2022-08-01T09:11:35;23.50;99.80
5588;DHT22;2816;49.778;9.986;2022-08-01T09:14:05;23.70;99.90
5588;DHT22;2816;49.778;9.986;2022-08-01T09:16:33;23.70;98.90
5588;DHT22;2816;49.778;9.986;2022-08-01T09:19:09;23.70;99.00
5588;DHT22;2816;49.778;9.986;2022-08-01T09:21:38;23.70;99.10
5588;DHT22;2816;49.778;9.986;2022-08-01T09:24:15;23.90;99.10
5588;DHT22;2816;49.778;9.986;2022-08-01T09:26:42;24.00;99.00
5588;DHT22;2816;49.778;9.986;2022-08-01T09:29:18;23.80;98.90
5588;DHT22;2816;49.778;9.986;2022-08-01T09:31:46;23.90;98.90
5588;DHT22;2816;49.778;9.986;2022-08-01T09:34:13;24.00;98.60
5588;DHT22;2816;49.778;9.986;2022-08-01T09:36:46;24.00;98.50
5588;DHT22;2816;49.778;9.986;2022-08-01T09:39:18;24.00;98.70
5588;DHT22;2816;49.778;9.986;2022-08-01T09:41:46;24.30;98.30
5588;DHT22;2816;49.778;9.986;2022-08-01T09:44:13;24.30;98.10
5588;DHT22;2816;49.778;9.986;2022-08-01T09:46:50;24.40;97.90
5588;DHT22;2816;49.778;9.986;2022-08-01T09:49:28;24.50;97.40
5588;DHT22;2816;49.778;9.986;2022-08-01T09:51:57;24.50;97.30
5588;DHT22;2816;49.778;9.986;2022-08-01T09:54:29;24.60;97.70
5588;DHT22;2816;49.778;9.986;2022-08-01T09:57:08;24.80;97.20
5588;DHT22;2816;49.778;9.986;2022-08-01T09:59:36;25.00;96.50
5588;DHT22;2816;49.778;9.986;2022-08-01T10:02:06;25.00;95.90
5588;DHT22;2816;49.778;9.986;2022-08-01T10:04:33;25.20;96.00
5588;DHT22;2816;49.778;9.986;2022-08-01T10:07:06;25.30;95.90
5588;DHT22;2816;49.778;9.986;2022-08-01T10:09:35;25.40;95.90
5588;DHT22;2816;49.778;9.986;2022-08-01T10:12:03;25.40;95.70
5588;DHT22;2816;49.778;9.986;2022-08-01T10:14:31;25.70;95.60
5588;DHT22;2816;49.778;9.986;2022-08-01T10:16:59;25.80;95.20
5588;DHT22;2816;49.778;9.986;2022-08-01T10:19:28;25.50;95.30
5588;DHT22;2816;49.778;9.986;2022-08-01T10:21:56;25.60;95.10
5588;DHT22;2816;49.778;9.986;2022-08-01T10:24:27;25.80;94.40
5588;DHT22;2816;49.778;9.986;2022-08-01T10:26:57;26.10;94.80
5588;DHT22;2816;49.778;9.986;2022-08-01T10:29:31;26.10;94.00
5588;DHT22;2816;49.778;9.986;2022-08-01T10:31:59;26.10;94.10
5588;DHT22;2816;49.778;9.986;2022-08-01T10:34:27;25.90;93.80
5588;DHT22;2816;49.778;9.986;2022-08-01T10:36:56;26.00;93.80
5588;DHT22;2816;49.778;9.986;2022-08-01T10:39:25;25.80;93.80
5588;DHT22;2816;49.778;9.986;2022-08-01T10:41:54;25.90;94.00
5588;DHT22;2816;49.778;9.986;2022-08-01T10:44:22;26.10;93.90
5588;DHT22;2816;49.778;9.986;2022-08-01T10:46:54;26.10;93.50
5588;DHT22;2816;49.778;9.986;2022-08-01T10:49:27;25.80;94.30
5588;DHT22;2816;49.778;9.986;2022-08-01T10:51:55;26.00;93.90
5588;DHT22;2816;49.778;9.986;2022-08-01T10:54:26;26.00;93.40
5588;DHT22;2816;49.778;9.986;2022-08-01T10:56:53;26.00;93.20
5588;DHT22;2816;49.778;9.986;2022-08-01T10:59:24;25.90;93.10
5588;DHT22;2816;49.778;9.986;2022-08-01T11:01:58;26.00;93.40
5588;DHT22;2816;49.778;9.986;2022-08-01T11:04:42;26.30;93.30
5588;DHT22;2816;49.778;9.986;2022-08-01T11:07:16;26.50;93.10
5588;DHT22;2816;49.778;9.986;2022-08-01T11:09:46;26.80;92.90
5588;DHT22;2816;49.778;9.986;2022-08-01T11:12:15;26.80;91.80
5588;DHT22;2816;49.778;9.986;2022-08-01T11:15:19;26.80;91.90
5588;DHT22;2816;49.778;9.986;2022-08-01T11:17:54;27.20;91.70
5588;DHT22;2816;49.778;9.986;2022-08-01T11:20:23;27.30;91.10
5588;DHT22;2816;49.778;9.986;2022-08-01T11:23:23;27.50;90.90
5588;DHT22;2816;49.778;9.986;2022-08-01T11:26:24;27.50;90.70
5588;DHT22;2816;49.778;9.986;2022-08-01T11:29:15;27.40;90.50
5588;DHT22;2816;49.778;9.986;2022-08-01T11:31:42;26.90;91.00
5588;DHT22;2816;49.778;9.986;2022-08-01T11:34:09;26.80;91.10
5588;DHT22;2816;49.778;9.986;2022-08-01T11:36:36;26.80;91.60
5588;DHT22;2816;49.778;9.986;2022-08-01T11:39:17;27.10;91.60
5588;DHT22;2816;49.778;9.986;2022-08-01T11:41:47;27.20;90.50
5588;DHT22;2816;49.778;9.986;2022-08-01T11:44:19;27.00;90.40
5588;DHT22;2816;49.778;9.986;2022-08-01T11:46:50;27.20;90.40
5588;DHT22;2816;49.778;9.986;2022-08-01T11:49:43;27.50;88.10
5588;DHT22;2816;49.778;9.986;2022-08-01T11:52:13;27.70;88.00
5588;DHT22;2816;49.778;9.986;2022-08-01T11:54:42;27.80;86.30
5588;DHT22;2816;49.778;9.986;2022-08-01T11:57:12;28.00;86.50
5588;DHT22;2816;49.778;9.986;2022-08-01T11:59:40;27.90;87.00
5588;DHT22;2816;49.778;9.986;2022-08-01T12:02:18;27.70;85.30
5588;DHT22;2816;49.778;9.986;2022-08-01T12:04:47;27.20;87.80
5588;DHT22;2816;49.778;9.986;2022-08-01T12:07:14;27.20;87.00
5588;DHT22;2816;49.778;9.986;2022-08-01T12:09:42;27.20;88.80
5588;DHT22;2816;49.778;9.986;2022-08-01T12:12:10;27.10;87.50
5588;DHT22;2816;49.778;9.986;2022-08-01T12:14:38;27.10;86.50
5588;DHT22;2816;49.778;9.986;2022-08-01T12:17:05;27.40;87.00
5588;DHT22;2816;49.778;9.986;2022-08-01T12:19:32;27.80;86.40
5588;DHT22;2816;49.778;9.986;2022-08-01T12:22:06;27.90;86.00
5588;DHT22;2816;49.778;9.986;2022-08-01T12:24:33;28.20;85.00
5588;DHT22;2816;49.778;9.986;2022-08-01T12:27:01;28.70;85.00
5588;DHT22;2816;49.778;9.986;2022-08-01T12:29:33;28.70;84.00
5588;DHT22;2816;49.778;9.986;2022-08-01T12:32:01;29.00;81.10
5588;DHT22;2816;49.778;9.986;2022-08-01T12:34:29;28.80;81.90
5588;DHT22;2816;49.778;9.986;2022-08-01T12:37:00;28.80;82.80
5588;DHT22;2816;49.778;9.986;2022-08-01T12:39:35;28.90;82.50
5588;DHT22;2816;49.778;9.986;2022-08-01T12:42:06;29.00;82.20
5588;DHT22;2816;49.778;9.986;2022-08-01T12:44:37;29.40;82.30
5588;DHT22;2816;49.778;9.986;2022-08-01T12:47:05;29.50;81.70
5588;DHT22;2816;49.778;9.986;2022-08-01T12:49:33;29.60;79.80
5588;DHT22;2816;49.778;9.986;2022-08-01T12:52:01;29.40;80.70
5588;DHT22;2816;49.778;9.986;2022-08-01T12:54:29;29.10;80.80
5588;DHT22;2816;49.778;9.986;2022-08-01T12:56:56;28.90;81.00
5588;DHT22;2816;49.778;9.986;2022-08-01T12:59:24;28.90;82.20
5588;DHT22;2816;49.778;9.986;2022-08-01T13:01:54;28.70;80.50
5588;DHT22;2816;49.778;9.986;2022-08-01T13:04:22;28.60;81.00
5588;DHT22;2816;49.778;9.986;2022-08-01T13:06:53;28.60;82.30
5588;DHT22;2816;49.778;9.986;2022-08-01T13:09:20;28.40;81.10
5588;DHT22;2816;49.778;9.986;2022-08-01T13:11:47;28.40;81.90
5588;DHT22;2816;49.778;9.986;2022-08-01T13:14:27;28.60;82.10
5588;DHT22;2816;49.778;9.986;2022-08-01T13:16:55;28.80;81.60
5588;DHT22;2816;49.778;9.986;2022-08-01T13:19:43;28.70;80.40
5588;DHT22;2816;49.778;9.986;2022-08-01T13:22:10;28.50;81.20
5588;DHT22;2816;49.778;9.986;2022-08-01T13:24:37;28.60;81.00
5588;DHT22;2816;49.778;9.986;2022-08-01T13:27:05;28.30;81.90
5588;DHT22;2816;49.778;9.986;2022-08-01T13:29:33;28.30;80.60
5588;DHT22;2816;49.778;9.986;2022-08-01T13:32:12;28.00;81.80
5588;DHT22;2816;49.778;9.986;2022-08-01T13:34:40;27.90;80.00
5588;DHT22;2816;49.778;9.986;2022-08-01T13:37:07;27.70;82.50
5588;DHT22;2816;49.778;9.986;2022-08-01T13:39:34;28.10;79.90
5588;DHT22;2816;49.778;9.986;2022-08-01T13:42:08;28.10;80.10
5588;DHT22;2816;49.778;9.986;2022-08-01T13:44:35;27.90;81.40
5588;DHT22;2816;49.778;9.986;2022-08-01T13:47:05;28.10;80.80
5588;DHT22;2816;49.778;9.986;2022-08-01T13:49:32;28.20;81.10
5588;DHT22;2816;49.778;9.986;2022-08-01T13:52:00;27.80;80.60
5588;DHT22;2816;49.778;9.986;2022-08-01T13:54:27;27.70;81.90
5588;DHT22;2816;49.778;9.986;2022-08-01T13:56:54;27.90;81.20
5588;DHT22;2816;49.778;9.986;2022-08-01T13:59:21;27.90;80.60
5588;DHT22;2816;49.778;9.986;2022-08-01T14:01:49;27.90;81.70
5588;DHT22;2816;49.778;9.986;2022-08-01T14:04:17;27.90;80.60
5588;DHT22;2816;49.778;9.986;2022-08-01T14:06:44;28.00;81.60
5588;DHT22;2816;49.778;9.986;2022-08-01T14:09:11;28.30;80.80
5588;DHT22;2816;49.778;9.986;2022-08-01T14:11:38;28.60;79.30
5588;DHT22;2816;49.778;9.986;2022-08-01T14:14:05;28.80;79.40
5588;DHT22;2816;49.778;9.986;2022-08-01T14:16:32;28.90;77.90
5588;DHT22;2816;49.778;9.986;2022-08-01T14:18:59;28.80;78.50
5588;DHT22;2816;49.778;9.986;2022-08-01T14:21:28;29.10;77.80
5588;DHT22;2816;49.778;9.986;2022-08-01T14:23:55;29.10;78.20
5588;DHT22;2816;49.778;9.986;2022-08-01T14:26:22;29.10;76.80
5588;DHT22;2816;49.778;9.986;2022-08-01T14:28:49;29.00;78.40
5588;DHT22;2816;49.778;9.986;2022-08-01T14:31:15;29.20;77.30
5588;DHT22;2816;49.778;9.986;2022-08-01T14:33:42;29.40;76.00
5588;DHT22;2816;49.778;9.986;2022-08-01T14:36:09;29.60;75.70
5588;DHT22;2816;49.778;9.986;2022-08-01T14:38:38;29.50;76.00
5588;DHT22;2816;49.778;9.986;2022-08-01T14:41:05;29.00;75.40
5588;DHT22;2816;49.778;9.986;2022-08-01T14:43:32;28.70;76.00
5588;DHT22;2816;49.778;9.986;2022-08-01T14:45:59;29.10;75.80
5588;DHT22;2816;49.778;9.986;2022-08-01T14:48:26;28.90;76.00
5588;DHT22;2816;49.778;9.986;2022-08-01T14:50:53;28.90;75.40
5588;DHT22;2816;49.778;9.986;2022-08-01T14:53:20;28.90;75.80
5588;DHT22;2816;49.778;9.986;2022-08-01T14:55:48;28.80;76.70
5588;DHT22;2816;49.778;9.986;2022-08-01T14:58:15;28.90;77.00
5588;DHT22;2816;49.778;9.986;2022-08-01T15:00:42;28.60;76.90
5588;DHT22;2816;49.778;9.986;2022-08-01T15:03:09;28.70;76.70
5588;DHT22;2816;49.778;9.986;2022-08-01T15:05:36;28.60;75.10
5588;DHT22;2816;49.778;9.986;2022-08-01T15:08:03;28.80;74.50
5588;DHT22;2816;49.778;9.986;2022-08-01T15:10:30;28.70;73.40
5588;DHT22;2816;49.778;9.986;2022-08-01T15:12:59;28.70;73.70
5588;DHT22;2816;49.778;9.986;2022-08-01T15:15:27;28.80;71.70
5588;DHT22;2816;49.778;9.986;2022-08-01T15:17:54;28.80;74.10
5588;DHT22;2816;49.778;9.986;2022-08-01T15:20:21;29.10;70.10
5588;DHT22;2816;49.778;9.986;2022-08-01T15:22:48;29.10;68.70
5588;DHT22;2816;49.778;9.986;2022-08-01T15:25:15;28.90;68.80
5588;DHT22;2816;49.778;9.986;2022-08-01T15:27:42;29.00;69.70
5588;DHT22;2816;49.778;9.986;2022-08-01T15:30:11;29.00;68.80
5588;DHT22;2816;49.778;9.986;2022-08-01T15:32:38;29.10;69.10
5588;DHT22;2816;49.778;9.986;2022-08-01T15:35:06;29.10;69.90
5588;DHT22;2816;49.778;9.986;2022-08-01T15:37:35;29.00;71.10
5588;DHT22;2816;49.778;9.986;2022-08-01T15:40:03;28.90;72.00
5588;DHT22;2816;49.778;9.986;2022-08-01T15:42:30;29.00;71.30
5588;DHT22;2816;49.778;9.986;2022-08-01T15:44:57;28.90;71.20
5588;DHT22;2816;49.778;9.986;2022-08-01T15:47:25;28.90;72.20
5588;DHT22;2816;49.778;9.986;2022-08-01T15:49:53;28.80;71.90
5588;DHT22;2816;49.778;9.986;2022-08-01T15:52:21;28.70;71.80
5588;DHT22;2816;49.778;9.986;2022-08-01T15:54:48;28.50;72.10
5588;DHT22;2816;49.778;9.986;2022-08-01T15:57:15;28.50;71.50
5588;DHT22;2816;49.778;9.986;2022-08-01T15:59:42;28.30;72.10
5588;DHT22;2816;49.778;9.986;2022-08-01T16:02:09;28.20;71.50
5588;DHT22;2816;49.778;9.986;2022-08-01T16:04:38;28.10;71.80
5588;DHT22;2816;49.778;9.986;2022-08-01T16:07:05;28.20;71.80
5588;DHT22;2816;49.778;9.986;2022-08-01T16:09:33;28.30;72.00
5588;DHT22;2816;49.778;9.986;2022-08-01T16:12:00;28.40;71.10
5588;DHT22;2816;49.778;9.986;2022-08-01T16:14:27;28.30;71.60